Time;durP1;ratioP1;P1;durP2;ratioP2;P2;SDS_P1;SDS_P2;PMS_P1;PMS_P2;Temp;Humidity;BMP_temperature;BMP_pressure;BME280_temperature;BME280_humidity;BME280_pressure;Samples;Min_cycle;Max_cycle;Signal;HPM_P1;HPM_P2
2022/01/11 00:01:17;;;;;;;22.23;10.35;;;-0.20;82.10;;;;;;5074027;28;20436;-74
2022/01/11 00:03:42;;;;;;;17.92;10.00;;;-0.10;82.30;;;;;;5056130;28;20056;-74
2022/01/11 00:08:59;;;;;;;20.63;10.80;;;-0.10;82.30;;;;;;5074186;28;20031;-74
2022/01/11 00:11:24;;;;;;;20.40;9.75;;;-0.10;82.70;;;;;;5073950;28;20028;-75
2022/01/11 00:13:50;;;;;;;19.88;9.93;;;-0.10;82.80;;;;;;5073467;28;20113;-73
2022/01/11 00:16:16;;;;;;;20.67;10.13;;;0.00;82.70;;;;;;5073775;28;20020;-74
2022/01/11 00:18:42;;;;;;;19.48;9.70;;;0.00;82.30;;;;;;5073712;28;20396;-74
2022/01/11 00:21:08;;;;;;;19.90;8.45;;;0.00;82.30;;;;;;5073544;28;20082;-74
2022/01/11 00:25:59;;;;;;;16.67;9.43;;;0.00;82.20;;;;;;5073535;28;20025;-74
2022/01/11 00:28:26;;;;;;;16.73;9.07;;;0.00;82.30;;;;;;5073528;28;20030;-74
2022/01/11 00:30:52;;;;;;;16.13;8.10;;;0.10;82.80;;;;;;5073418;28;20024;-74
2022/01/11 00:33:25;;;;;;;15.93;8.50;;;0.10;83.00;;;;;;5073613;28;20024;-74
2022/01/11 00:35:59;;;;;;;19.00;9.98;;;0.20;82.90;;;;;;5073332;28;20098;-74
2022/01/11 00:38:31;;;;;;;19.42;8.60;;;0.30;82.70;;;;;;5073358;28;20036;-74
2022/01/11 00:41:00;;;;;;;19.30;9.55;;;0.30;82.50;;;;;;5073385;28;20112;-74
2022/01/11 00:43:28;;;;;;;13.07;8.00;;;0.30;82.10;;;;;;5073327;28;20017;-74
2022/01/11 00:45:54;;;;;;;20.33;9.55;;;0.30;82.00;;;;;;5073244;28;20028;-74
2022/01/11 00:48:20;;;;;;;17.30;9.60;;;0.30;82.00;;;;;;5073248;28;20123;-74
2022/01/11 00:50:47;;;;;;;23.25;10.82;;;0.30;82.70;;;;;;5073117;28;20024;-75
2022/01/11 00:53:13;;;;;;;19.05;9.20;;;0.30;81.80;;;;;;5073225;28;20025;-74
2022/01/11 00:55:38;;;;;;;19.85;9.95;;;0.30;82.10;;;;;;5073262;28;20031;-74
2022/01/11 00:58:05;;;;;;;15.85;8.85;;;0.30;82.10;;;;;;5073086;28;20025;-74
2022/01/11 01:00:33;;;;;;;18.98;9.82;;;0.30;82.10;;;;;;5073134;28;20020;-74
2022/01/11 01:02:59;;;;;;;19.10;8.48;;;0.30;82.00;;;;;;5073037;28;20023;-74
2022/01/11 01:05:25;;;;;;;18.80;9.48;;;0.30;82.00;;;;;;5072849;28;20032;-74
2022/01/11 01:07:51;;;;;;;20.50;9.85;;;0.30;82.00;;;;;;5054654;28;20063;-74
2022/01/11 01:12:45;;;;;;;14.45;8.18;;;0.30;82.50;;;;;;5072917;28;20365;-74
2022/01/11 01:15:11;;;;;;;18.50;8.18;;;0.40;82.50;;;;;;5072914;28;20119;-74
2022/01/11 01:17:36;;;;;;;14.05;7.82;;;0.30;82.10;;;;;;5072950;28;20020;-74
2022/01/11 01:20:04;;;;;;;18.30;8.10;;;0.40;82.00;;;;;;5072777;28;20112;-74
2022/01/11 01:22:29;;;;;;;16.65;8.27;;;0.40;82.10;;;;;;5072794;28;20074;-74
2022/01/11 01:24:55;;;;;;;15.45;8.00;;;0.30;82.20;;;;;;5072879;28;20060;-74
2022/01/11 01:27:20;;;;;;;18.08;8.30;;;0.40;82.30;;;;;;5072898;28;20020;-74
2022/01/11 01:29:46;;;;;;;17.77;7.88;;;0.40;82.20;;;;;;5072736;28;20032;-74
2022/01/11 01:32:11;;;;;;;20.73;8.48;;;0.40;82.30;;;;;;5072748;28;20032;-74
2022/01/11 01:34:37;;;;;;;15.02;8.07;;;0.40;83.10;;;;;;5072550;28;20049;-74
2022/01/11 01:37:04;;;;;;;13.77;7.40;;;0.50;82.50;;;;;;5072831;28;20025;-74
2022/01/11 01:39:29;;;;;;;13.95;6.82;;;0.50;82.40;;;;;;5072576;28;20067;-74
2022/01/11 01:41:55;;;;;;;17.63;8.40;;;0.40;82.10;;;;;;5072701;28;20052;-74
2022/01/11 01:44:21;;;;;;;14.50;7.22;;;0.50;82.30;;;;;;5072682;28;20024;-74
2022/01/11 01:46:47;;;;;;;19.30;8.52;;;0.50;82.10;;;;;;5072794;28;20461;-74
2022/01/11 01:49:16;;;;;;;17.60;7.80;;;0.50;82.20;;;;;;5072694;28;20107;-74
2022/01/11 01:51:42;;;;;;;19.67;8.40;;;0.50;82.20;;;;;;5072421;28;20025;-74
2022/01/11 01:54:08;;;;;;;16.20;8.30;;;0.50;82.20;;;;;;5054641;28;20369;-72
2022/01/11 01:56:34;;;;;;;16.00;7.90;;;0.50;82.30;;;;;;5072707;28;20158;-73
2022/01/11 01:59:00;;;;;;;14.85;7.82;;;0.50;82.30;;;;;;5072386;28;20486;-72
2022/01/11 02:01:26;;;;;;;15.80;7.97;;;0.50;82.50;;;;;;5072621;28;20029;-72
2022/01/11 02:03:52;;;;;;;16.27;8.25;;;0.40;82.40;;;;;;5072435;28;20473;-72
2022/01/11 02:06:20;;;;;;;19.20;8.27;;;0.40;82.60;;;;;;5072532;28;20036;-73
2022/01/11 02:08:49;;;;;;;21.02;8.93;;;0.40;82.70;;;;;;5072258;28;20114;-72
2022/01/11 02:11:20;;;;;;;14.05;8.27;;;0.50;82.70;;;;;;5074961;28;20481;-73
2022/01/11 02:13:46;;;;;;;14.38;7.45;;;0.40;82.60;;;;;;5074963;28;20477;-73
2022/01/11 02:16:13;;;;;;;18.02;8.20;;;0.50;82.90;;;;;;5074528;28;20466;-73
2022/01/11 02:18:41;;;;;;;19.98;9.02;;;0.50;82.80;;;;;;5072269;28;20044;-73
2022/01/11 02:21:07;;;;;;;17.83;8.88;;;0.50;82.60;;;;;;5074607;28;20017;-74
2022/01/11 02:23:33;;;;;;;18.63;9.35;;;0.60;82.50;;;;;;5075904;28;20028;-73
2022/01/11 02:25:59;;;;;;;18.42;7.88;;;0.60;82.60;;;;;;5075998;28;20392;-73
2022/01/11 02:28:27;;;;;;;19.40;9.02;;;0.60;82.50;;;;;;5075784;28;20481;-73
2022/01/11 02:30:54;;;;;;;17.63;8.57;;;0.70;82.60;;;;;;5075703;28;20078;-73
2022/01/11 02:33:33;;;;;;;21.13;9.07;;;0.70;82.50;;;;;;5075716;28;20021;-73
2022/01/11 02:36:03;;;;;;;15.40;7.57;;;0.70;82.30;;;;;;5075773;28;20052;-73
2022/01/11 02:38:29;;;;;;;15.20;8.75;;;0.70;82.30;;;;;;5075664;28;20070;-72
2022/01/11 02:40:55;;;;;;;15.75;8.65;;;0.70;82.20;;;;;;5075707;28;20024;-73
2022/01/11 02:43:21;;;;;;;15.80;8.10;;;0.70;82.30;;;;;;5075691;28;20081;-73
2022/01/11 02:45:46;;;;;;;16.35;8.23;;;0.70;82.30;;;;;;5076023;28;20055;-73
2022/01/11 02:48:12;;;;;;;15.73;8.43;;;0.70;82.30;;;;;;5075835;28;20024;-74
2022/01/11 02:50:38;;;;;;;19.42;9.63;;;0.70;82.10;;;;;;5075713;28;20025;-73
2022/01/11 02:53:03;;;;;;;16.02;8.65;;;0.60;82.10;;;;;;5075542;28;20020;-73
2022/01/11 02:55:29;;;;;;;20.67;10.77;;;0.70;82.50;;;;;;5075777;28;20469;-73
2022/01/11 02:57:55;;;;;;;18.50;9.68;;;0.60;82.70;;;;;;5075105;28;20078;-73
2022/01/11 03:00:23;;;;;;;21.25;9.32;;;0.40;82.90;;;;;;5075852;28;20496;-74
2022/01/11 03:02:49;;;;;;;17.20;9.55;;;0.40;83.50;;;;;;5075275;28;20036;-73
2022/01/11 03:05:15;;;;;;;15.18;8.60;;;0.40;83.70;;;;;;5075307;28;20032;-73
2022/01/11 03:07:42;;;;;;;17.15;9.75;;;0.40;83.70;;;;;;5075567;28;20029;-73
2022/01/11 03:10:32;;;;;;;19.75;10.13;;;0.40;84.00;;;;;;5057678;28;20444;-76
2022/01/11 03:13:02;;;;;;;24.77;12.35;;;0.50;84.00;;;;;;5075760;28;20051;-76
2022/01/11 03:15:28;;;;;;;26.35;13.27;;;0.60;84.10;;;;;;5075317;28;20035;-73
2022/01/11 03:17:53;;;;;;;22.88;11.30;;;0.60;83.90;;;;;;5074879;28;20103;-74
2022/01/11 03:20:19;;;;;;;18.85;9.10;;;0.70;83.80;;;;;;5075351;28;20479;-76
2022/01/11 03:22:45;;;;;;;18.02;9.77;;;0.70;83.70;;;;;;5075145;28;20067;-74
2022/01/11 03:25:12;;;;;;;16.58;9.13;;;0.80;83.60;;;;;;5074865;28;20032;-75
2022/01/11 03:27:39;;;;;;;18.00;8.98;;;0.80;83.40;;;;;;5075760;28;20020;-73
2022/01/11 03:30:05;;;;;;;18.27;8.50;;;0.80;83.20;;;;;;5075217;28;20500;-75
2022/01/11 03:32:30;;;;;;;20.92;9.90;;;0.80;83.20;;;;;;5074523;28;20038;-74
2022/01/11 03:34:56;;;;;;;20.15;10.18;;;0.80;83.20;;;;;;5074770;28;20127;-75
2022/01/11 03:37:22;;;;;;;19.30;9.73;;;0.80;83.10;;;;;;5074941;28;20473;-76
2022/01/11 03:39:48;;;;;;;21.63;11.07;;;0.80;83.00;;;;;;5074716;28;20206;-76
2022/01/11 03:42:14;;;;;;;21.50;10.80;;;0.80;83.00;;;;;;5075285;28;20029;-75
2022/01/11 03:44:39;;;;;;;24.73;10.85;;;0.70;83.20;;;;;;5074506;28;20538;-73
2022/01/11 03:47:06;;;;;;;49.00;15.27;;;0.70;83.20;;;;;;5074304;28;20037;-73
2022/01/11 03:49:31;;;;;;;54.38;16.67;;;0.70;83.10;;;;;;5074305;28;20032;-73
2022/01/11 03:51:57;;;;;;;54.30;18.80;;;0.70;83.20;;;;;;5074234;28;20066;-73
2022/01/11 03:54:26;;;;;;;66.03;22.60;;;0.80;83.50;;;;;;5074223;28;20056;-73
2022/01/11 03:56:53;;;;;;;55.50;18.17;;;0.80;83.50;;;;;;5074237;28;20017;-73
2022/01/11 03:59:19;;;;;;;46.17;17.80;;;0.80;83.50;;;;;;5074070;28;20477;-74
2022/01/11 04:01:45;;;;;;;35.60;13.70;;;0.80;83.60;;;;;;5074057;28;20035;-74
2022/01/11 04:04:11;;;;;;;27.77;12.30;;;0.80;83.70;;;;;;5074041;28;20115;-74
2022/01/11 04:06:37;;;;;;;27.08;10.75;;;0.80;83.80;;;;;;5074078;28;20052;-73
2022/01/11 04:09:05;;;;;;;39.13;13.13;;;0.80;83.70;;;;;;5073921;28;20033;-76
2022/01/11 04:11:31;;;;;;;36.28;12.80;;;0.90;83.90;;;;;;5073988;28;20028;-76
2022/01/11 04:13:57;;;;;;;42.42;13.90;;;0.90;84.00;;;;;;5073906;28;20021;-75
2022/01/11 04:16:22;;;;;;;44.20;13.73;;;0.80;84.00;;;;;;5074006;28;20051;-75
2022/01/11 04:18:48;;;;;;;44.63;13.20;;;0.80;84.10;;;;;;5073740;28;20059;-75
2022/01/11 04:21:14;;;;;;;42.15;15.18;;;0.80;84.30;;;;;;5055831;28;20084;-75
2022/01/11 04:23:39;;;;;;;44.63;14.88;;;0.90;84.70;;;;;;5073864;28;20024;-76
2022/01/11 04:26:05;;;;;;;57.05;16.60;;;0.80;84.80;;;;;;5073681;28;20021;-75
2022/01/11 04:28:31;;;;;;;62.83;18.83;;;0.80;85.00;;;;;;5073698;28;20035;-75
2022/01/11 04:30:59;;;;;;;53.95;16.55;;;0.90;85.40;;;;;;5073553;28;20059;-75
2022/01/11 04:33:27;;;;;;;60.17;17.90;;;0.90;85.60;;;;;;5062378;28;20028;-76
2022/01/11 04:35:53;;;;;;;63.25;18.85;;;0.90;85.70;;;;;;5079802;28;20041;-75
2022/01/11 04:38:21;;;;;;;62.05;21.20;;;0.90;85.80;;;;;;5077302;28;20412;-75
2022/01/11 04:40:46;;;;;;;75.90;21.08;;;0.90;85.90;;;;;;5074011;28;20024;-75
2022/01/11 04:43:12;;;;;;;88.53;22.98;;;1.00;86.00;;;;;;5073924;28;20077;-76
2022/01/11 04:45:37;;;;;;;78.57;21.33;;;1.00;86.10;;;;;;5073565;28;20028;-75
2022/01/11 04:48:04;;;;;;;62.17;18.55;;;1.00;86.20;;;;;;5073427;28;20017;-73
2022/01/11 04:50:30;;;;;;;79.20;18.77;;;1.00;86.30;;;;;;5055416;28;20027;-74
2022/01/11 04:52:57;;;;;;;49.67;15.48;;;1.00;86.30;;;;;;5073267;28;20072;-75
2022/01/11 04:55:23;;;;;;;55.85;15.48;;;0.90;86.30;;;;;;5073332;28;20388;-74
2022/01/11 04:57:49;;;;;;;53.25;15.98;;;0.90;86.40;;;;;;5073021;28;20086;-73
2022/01/11 05:00:17;;;;;;;63.28;17.30;;;0.90;86.60;;;;;;5072959;28;20598;-73
2022/01/11 05:02:43;;;;;;;53.47;16.77;;;0.90;86.60;;;;;;5073039;28;20035;-73
2022/01/11 05:05:08;;;;;;;56.33;17.77;;;0.90;86.60;;;;;;5073043;28;20032;-73
2022/01/11 05:07:34;;;;;;;72.30;19.83;;;0.90;86.80;;;;;;5072836;28;20031;-74
2022/01/11 05:10:00;;;;;;;59.75;20.77;;;0.90;86.80;;;;;;5072921;28;20031;-74
2022/01/11 05:12:25;;;;;;;63.70;21.08;;;0.90;86.90;;;;;;5073000;28;20376;-73
2022/01/11 05:14:51;;;;;;;68.30;21.33;;;0.90;87.20;;;;;;5072935;28;20029;-74
2022/01/11 05:17:17;;;;;;;62.58;20.35;;;1.00;87.50;;;;;;5072854;28;20023;-73
2022/01/11 05:19:42;;;;;;;57.20;20.45;;;1.00;87.60;;;;;;5072795;28;20037;-73
2022/01/11 05:22:08;;;;;;;62.08;22.02;;;1.10;87.50;;;;;;5072977;28;20029;-73
2022/01/11 05:24:33;;;;;;;50.40;21.77;;;1.10;87.40;;;;;;5054824;28;20029;-74
2022/01/11 05:26:59;;;;;;;53.42;21.50;;;1.10;87.20;;;;;;5072843;28;20025;-73
2022/01/11 05:29:25;;;;;;;47.72;21.30;;;1.10;87.00;;;;;;5072759;28;20094;-74
2022/01/11 05:31:50;;;;;;;53.97;20.95;;;1.20;87.00;;;;;;5072550;28;20078;-74
2022/01/11 05:34:16;;;;;;;59.42;22.92;;;1.20;86.80;;;;;;5072484;28;20449;-74
2022/01/11 05:36:41;;;;;;;86.32;27.58;;;1.10;86.80;;;;;;5054793;28;20024;-74
2022/01/11 05:39:07;;;;;;;80.53;26.63;;;1.10;86.90;;;;;;5072471;28;20040;-74
2022/01/11 05:41:33;;;;;;;72.20;23.40;;;1.00;87.00;;;;;;5072552;28;20096;-74
2022/01/11 05:43:59;;;;;;;74.63;25.50;;;1.00;87.10;;;;;;5072832;28;20032;-75
2022/01/11 05:46:25;;;;;;;76.57;26.73;;;1.00;87.40;;;;;;5072734;28;20381;-75
2022/01/11 05:48:50;;;;;;;70.00;24.70;;;1.00;87.50;;;;;;5072742;28;20040;-76
2022/01/11 05:51:16;;;;;;;61.35;22.75;;;1.10;87.70;;;;;;5072627;28;20024;-75
2022/01/11 05:53:43;;;;;;;71.80;27.38;;;1.10;87.70;;;;;;5072669;28;20032;-76
2022/01/11 05:56:08;;;;;;;78.45;29.27;;;1.10;87.80;;;;;;5057257;28;20090;-75
2022/01/11 05:58:34;;;;;;;71.82;25.92;;;1.10;87.90;;;;;;5075972;28;20477;-75
2022/01/11 06:01:00;;;;;;;73.82;27.92;;;1.10;87.80;;;;;;5076482;28;20024;-75
2022/01/11 06:03:26;;;;;;;81.13;27.65;;;1.10;88.00;;;;;;5076133;28;20029;-75
2022/01/11 06:05:51;;;;;;;71.63;26.33;;;1.10;88.00;;;;;;5057984;28;20029;-75
2022/01/11 06:08:17;;;;;;;83.95;28.50;;;1.20;88.10;;;;;;5076410;28;20040;-75
2022/01/11 06:10:43;;;;;;;76.40;28.92;;;1.20;88.10;;;;;;5076279;28;20027;-74
2022/01/11 06:13:09;;;;;;;77.95;29.23;;;1.20;88.10;;;;;;5058099;28;20024;-75
2022/01/11 06:15:35;;;;;;;64.43;23.70;;;1.20;88.30;;;;;;5076788;28;20063;-74
2022/01/11 06:18:01;;;;;;;90.10;30.17;;;1.20;88.50;;;;;;5076117;28;20016;-75
2022/01/11 06:20:27;;;;;;;79.68;28.17;;;1.20;88.70;;;;;;5075964;28;20029;-75
2022/01/11 06:22:53;;;;;;;69.43;26.88;;;1.30;88.80;;;;;;5075824;28;20024;-74
2022/01/11 06:25:19;;;;;;;81.07;29.70;;;1.30;88.90;;;;;;5076006;28;20025;-75
2022/01/11 06:27:45;;;;;;;86.97;32.95;;;1.30;89.10;;;;;;5076096;28;20013;-74
2022/01/11 06:30:11;;;;;;;93.32;33.15;;;1.30;89.20;;;;;;5089028;28;20052;-74
2022/01/11 06:32:38;;;;;;;79.88;30.98;;;1.30;89.20;;;;;;5057802;28;20450;-74
2022/01/11 06:35:05;;;;;;;85.05;30.90;;;1.40;89.10;;;;;;5075199;28;20049;-74
2022/01/11 06:37:31;;;;;;;86.45;32.38;;;1.30;89.30;;;;;;5075771;28;20099;-76
2022/01/11 06:39:57;;;;;;;83.50;29.80;;;1.30;89.40;;;;;;5075445;28;20054;-73
2022/01/11 06:42:22;;;;;;;90.55;33.70;;;1.30;89.40;;;;;;5075529;28;20017;-74
2022/01/11 06:44:48;;;;;;;97.90;32.78;;;1.20;89.80;;;;;;5075455;28;20032;-74
2022/01/11 06:47:14;;;;;;;85.28;31.95;;;1.20;90.30;;;;;;5075627;28;20027;-74
2022/01/11 06:49:40;;;;;;;86.90;30.10;;;1.10;90.20;;;;;;5075411;28;20036;-74
2022/01/11 06:52:06;;;;;;;107.88;35.15;;;1.10;90.20;;;;;;5075070;28;20096;-75
2022/01/11 06:54:32;;;;;;;75.72;30.90;;;1.10;90.50;;;;;;5057374;28;20455;-74
2022/01/11 06:56:57;;;;;;;79.45;33.20;;;1.10;90.70;;;;;;5075419;28;20113;-73
2022/01/11 06:59:23;;;;;;;89.40;30.98;;;1.10;90.90;;;;;;5075169;28;20068;-73
2022/01/11 07:01:49;;;;;;;76.05;30.98;;;1.20;91.00;;;;;;5075070;28;20512;-73
2022/01/11 07:04:15;;;;;;;75.28;29.85;;;1.20;91.00;;;;;;5057156;28;20032;-75
2022/01/11 07:06:41;;;;;;;80.00;30.02;;;1.20;91.00;;;;;;5074721;28;20016;-73
2022/01/11 07:09:06;;;;;;;87.38;30.23;;;1.30;91.20;;;;;;5074854;28;20024;-73
2022/01/11 07:11:32;;;;;;;86.97;29.65;;;1.30;91.00;;;;;;5075080;28;20025;-74
2022/01/11 07:13:57;;;;;;;86.95;31.00;;;1.40;90.90;;;;;;5074968;28;20480;-74
2022/01/11 07:16:23;;;;;;;86.82;31.73;;;1.40;90.70;;;;;;5074872;28;20373;-74
2022/01/11 07:18:49;;;;;;;95.65;32.00;;;1.40;90.40;;;;;;5074843;28;20028;-74
2022/01/11 07:21:15;;;;;;;90.47;32.90;;;1.40;90.40;;;;;;5074860;28;20083;-74
2022/01/11 07:23:41;;;;;;;94.85;33.53;;;1.40;90.30;;;;;;5074694;28;20476;-75
2022/01/11 07:26:09;;;;;;;97.78;34.10;;;1.50;90.40;;;;;;5074580;28;20039;-74
2022/01/11 07:28:35;;;;;;;90.25;33.63;;;1.40;90.20;;;;;;5074718;28;20032;-74
2022/01/11 07:31:01;;;;;;;77.97;30.60;;;1.30;90.40;;;;;;5074629;28;20021;-74
2022/01/11 07:33:26;;;;;;;82.85;32.28;;;1.40;90.80;;;;;;5074491;28;20070;-73
2022/01/11 07:35:52;;;;;;;76.32;29.27;;;1.50;91.10;;;;;;5074385;28;20068;-74
2022/01/11 07:38:18;;;;;;;85.13;33.92;;;1.50;90.80;;;;;;5056329;28;20035;-74
2022/01/11 07:40:43;;;;;;;81.18;32.78;;;1.50;90.30;;;;;;5074348;28;20036;-74
2022/01/11 07:43:09;;;;;;;66.60;29.88;;;1.50;90.30;;;;;;5074602;28;20021;-75
2022/01/11 07:45:35;;;;;;;68.18;28.50;;;1.50;90.30;;;;;;5074276;28;20026;-74
2022/01/11 07:48:00;;;;;;;64.93;29.02;;;1.60;90.10;;;;;;5073327;28;20059;-74
2022/01/11 07:50:26;;;;;;;60.55;27.48;;;1.60;89.90;;;;;;5073522;28;20099;-74
2022/01/11 07:52:52;;;;;;;68.78;28.90;;;1.60;90.60;;;;;;5073948;28;20074;-74
2022/01/11 07:55:19;;;;;;;66.47;28.80;;;1.60;89.80;;;;;;5074201;28;20473;-74
2022/01/11 07:57:44;;;;;;;75.13;32.25;;;1.70;89.90;;;;;;5074013;28;20028;-74
2022/01/11 08:00:10;;;;;;;66.82;29.67;;;1.70;89.70;;;;;;5073992;28;20086;-74
2022/01/11 08:02:36;;;;;;;70.07;30.40;;;1.70;89.50;;;;;;5055935;28;20436;-73
2022/01/11 08:05:03;;;;;;;68.88;28.77;;;1.70;89.50;;;;;;5073671;28;20056;-73
2022/01/11 08:07:29;;;;;;;69.15;30.77;;;1.80;89.50;;;;;;5055776;28;20111;-74
2022/01/11 08:09:54;;;;;;;70.18;31.42;;;1.80;89.40;;;;;;5073712;28;20082;-74
2022/01/11 08:12:20;;;;;;;63.90;26.83;;;1.80;89.10;;;;;;5074064;28;20373;-75
2022/01/11 08:14:48;;;;;;;69.50;31.35;;;1.80;88.90;;;;;;5077198;28;20503;-75
2022/01/11 08:17:14;;;;;;;68.88;29.42;;;1.80;88.60;;;;;;5076026;28;20461;-74
2022/01/11 08:19:40;;;;;;;69.78;30.65;;;1.90;88.70;;;;;;5073320;28;20112;-73
2022/01/11 08:22:06;;;;;;;70.78;29.05;;;1.90;88.70;;;;;;5073656;28;20038;-73
2022/01/11 08:24:32;;;;;;;66.38;27.98;;;1.80;88.70;;;;;;5073465;28;20111;-74
2022/01/11 08:26:58;;;;;;;60.05;28.75;;;1.90;88.70;;;;;;5073478;28;20027;-74
2022/01/11 08:29:24;;;;;;;85.57;32.65;;;1.90;88.60;;;;;;5073287;28;20465;-74
2022/01/11 08:31:50;;;;;;;82.05;34.08;;;2.00;88.30;;;;;;5073492;28;20021;-74
2022/01/11 08:34:17;;;;;;;75.75;32.70;;;1.90;88.20;;;;;;5073144;28;20489;-74
2022/01/11 08:36:45;;;;;;;73.75;30.70;;;1.90;88.50;;;;;;5073368;28;20035;-74
2022/01/11 08:39:11;;;;;;;72.13;31.63;;;1.90;88.60;;;;;;5072902;28;20049;-73
2022/01/11 08:41:38;;;;;;;59.83;22.13;;;2.00;88.50;;;;;;5073241;28;20081;-72
2022/01/11 08:44:04;;;;;;;81.78;33.65;;;3.20;99.70;;;;;;5073134;28;20048;-72
2022/01/11 08:46:30;;;;;;;70.55;31.45;;;3.70;99.90;;;;;;5072991;28;20027;-72
2022/01/11 08:48:56;;;;;;;63.90;30.45;;;4.20;99.00;;;;;;5073129;28;20025;-74
2022/01/11 08:51:21;;;;;;;55.78;27.20;;;4.30;91.10;;;;;;5072717;28;20538;-74
2022/01/11 08:53:47;;;;;;;55.38;26.80;;;4.60;86.30;;;;;;5072805;28;20029;-73
2022/01/11 08:56:17;;;;;;;49.20;25.45;;;4.90;82.50;;;;;;5072815;28;20036;-74
2022/01/11 08:58:43;;;;;;;46.63;25.73;;;5.10;80.10;;;;;;5072917;28;20105;-74
2022/01/11 09:01:09;;;;;;;49.78;24.90;;;5.20;78.30;;;;;;5072998;28;20025;-74
2022/01/11 09:03:34;;;;;;;47.42;24.88;;;5.60;76.20;;;;;;5073126;28;20023;-73
2022/01/11 09:06:01;;;;;;;44.38;23.30;;;5.80;75.40;;;;;;5072914;28;20089;-74
2022/01/11 09:08:26;;;;;;;45.95;24.70;;;5.70;74.40;;;;;;5073058;28;20028;-74
2022/01/11 09:10:52;;;;;;;47.85;24.48;;;5.60;73.50;;;;;;5072867;28;20106;-73
2022/01/11 09:13:19;;;;;;;51.08;26.67;;;5.20;73.20;;;;;;5072947;28;20043;-74
2022/01/11 09:15:44;;;;;;;53.17;26.92;;;4.80;74.20;;;;;;5072776;28;20112;-73
2022/01/11 09:18:12;;;;;;;55.30;26.38;;;4.60;75.50;;;;;;5072653;28;20099;-74
2022/01/11 09:20:38;;;;;;;50.42;24.70;;;4.30;76.30;;;;;;5072762;28;20021;-73
2022/01/11 09:23:04;;;;;;;55.38;26.63;;;4.20;77.00;;;;;;5072648;28;20504;-74
2022/01/11 09:25:29;;;;;;;49.45;24.83;;;4.00;77.60;;;;;;5072597;28;20037;-73
2022/01/11 09:27:55;;;;;;;42.95;23.58;;;3.90;78.00;;;;;;5072570;28;20077;-73
2022/01/11 09:30:20;;;;;;;42.05;22.52;;;3.90;78.30;;;;;;5074026;28;20043;-74
2022/01/11 09:32:46;;;;;;;44.60;24.38;;;3.90;78.70;;;;;;5058673;28;20032;-73
2022/01/11 09:35:13;;;;;;;49.88;25.80;;;4.00;78.70;;;;;;5076734;28;20044;-73
2022/01/11 09:37:39;;;;;;;49.95;25.90;;;4.00;78.70;;;;;;5076557;28;20035;-74
2022/01/11 09:40:08;;;;;;;44.83;25.20;;;4.00;78.30;;;;;;5076419;28;20187;-74
2022/01/11 09:42:35;;;;;;;44.58;23.80;;;4.00;78.20;;;;;;5076656;28;20141;-74
2022/01/11 09:45:01;;;;;;;45.55;24.17;;;4.00;78.30;;;;;;5076325;28;20028;-74
2022/01/11 09:47:27;;;;;;;43.08;24.38;;;4.00;78.50;;;;;;5076260;28;20032;-74
2022/01/11 09:49:53;;;;;;;41.63;22.50;;;4.00;78.50;;;;;;5076124;28;20481;-74
2022/01/11 09:52:18;;;;;;;44.17;25.10;;;4.20;78.50;;;;;;5076321;28;20129;-74
2022/01/11 09:54:47;;;;;;;39.33;22.27;;;4.20;78.00;;;;;;5076155;28;20051;-73
2022/01/11 09:57:13;;;;;;;49.38;25.48;;;4.20;78.00;;;;;;5076052;28;20051;-73
2022/01/11 09:59:39;;;;;;;47.58;25.70;;;4.30;78.10;;;;;;5076258;28;20064;-73
2022/01/11 10:02:05;;;;;;;45.38;24.75;;;4.20;77.80;;;;;;5076468;28;20021;-74
2022/01/11 10:04:32;;;;;;;49.55;25.98;;;4.20;78.10;;;;;;5076282;28;20111;-74
2022/01/11 10:07:00;;;;;;;42.25;24.48;;;4.30;78.10;;;;;;5076294;28;20059;-73
2022/01/11 10:09:29;;;;;;;48.75;24.95;;;4.50;77.70;;;;;;5075947;28;20523;-74
2022/01/11 10:11:57;;;;;;;46.85;26.55;;;4.60;77.10;;;;;;5076010;28;20040;-74
2022/01/11 10:14:31;;;;;;;47.88;25.17;;;4.90;76.80;;;;;;5075976;28;20384;-75
2022/01/11 10:17:05;;;;;;;48.83;25.73;;;5.40;75.50;;;;;;5075902;28;20023;-74
2022/01/11 10:19:31;;;;;;;46.00;24.75;;;5.60;73.60;;;;;;5075746;28;20043;-75
2022/01/11 10:21:57;;;;;;;41.03;23.52;;;5.70;73.00;;;;;;5075746;28;20025;-74
2022/01/11 10:24:25;;;;;;;43.85;25.08;;;5.70;72.70;;;;;;5075492;28;20028;-73
2022/01/11 10:26:53;;;;;;;44.85;25.35;;;5.80;72.30;;;;;;5075655;28;20437;-74
2022/01/11 10:29:36;;;;;;;49.58;26.75;;;6.00;71.70;;;;;;5057527;28;20027;-75
2022/01/11 10:32:15;;;;;;;41.67;24.15;;;5.90;71.00;;;;;;5075561;28;20059;-75
2022/01/11 10:34:42;;;;;;;49.38;27.90;;;5.70;71.50;;;;;;5075654;28;20148;-75
2022/01/11 10:37:08;;;;;;;46.53;24.00;;;5.20;72.90;;;;;;5075508;28;20017;-74
2022/01/11 10:39:44;;;;;;;47.33;26.27;;;5.20;73.80;;;;;;5075617;28;20033;-75
2022/01/11 10:42:33;;;;;;;44.90;25.85;;;5.30;73.80;;;;;;5075031;28;20021;-75
2022/01/11 10:45:03;;;;;;;46.92;25.63;;;5.10;73.60;;;;;;5075530;28;20115;-75
2022/01/11 10:47:33;;;;;;;43.80;23.58;;;5.10;74.10;;;;;;5075312;28;20526;-75
2022/01/11 10:50:08;;;;;;;49.63;27.35;;;5.10;74.40;;;;;;5075255;28;20111;-74
2022/01/11 10:52:35;;;;;;;37.83;20.45;;;5.20;74.60;;;;;;5057210;28;20024;-75
2022/01/11 10:55:02;;;;;;;42.58;24.05;;;5.30;74.30;;;;;;5075278;28;20024;-74
2022/01/11 10:57:33;;;;;;;43.92;24.25;;;5.50;73.80;;;;;;5057388;28;20389;-75
2022/01/11 11:00:18;;;;;;;40.35;23.25;;;5.50;73.20;;;;;;5075025;28;20115;-76
2022/01/11 11:02:49;;;;;;;42.73;23.73;;;5.60;73.80;;;;;;5074954;28;20028;-74
2022/01/11 11:05:19;;;;;;;43.88;22.90;;;5.60;73.10;;;;;;5075262;28;20029;-75
2022/01/11 11:07:55;;;;;;;43.90;24.30;;;5.90;72.90;;;;;;5075011;28;20023;-75
2022/01/11 11:10:37;;;;;;;37.25;21.48;;;6.20;71.90;;;;;;5075127;28;20016;-74
2022/01/11 11:13:06;;;;;;;29.25;16.55;;;6.60;68.40;;;;;;5056712;28;20078;-75
2022/01/11 11:15:35;;;;;;;13.75;8.10;;;6.90;67.10;;;;;;5057142;28;20021;-75
2022/01/11 11:18:03;;;;;;;25.40;12.70;;;7.20;64.00;;;;;;5075071;28;20032;-74
2022/01/11 11:20:30;;;;;;;32.60;18.50;;;7.50;61.80;;;;;;5074801;28;20085;-74
2022/01/11 11:22:57;;;;;;;34.95;18.75;;;7.70;62.10;;;;;;5074580;28;20496;-73
2022/01/11 11:25:22;;;;;;;31.45;18.20;;;7.80;61.70;;;;;;5074513;28;20028;-74
2022/01/11 11:27:48;;;;;;;30.42;18.27;;;8.00;61.50;;;;;;5074598;28;20025;-73
2022/01/11 11:30:14;;;;;;;28.77;15.88;;;8.00;61.50;;;;;;5074576;28;20064;-73
2022/01/11 11:32:41;;;;;;;23.38;12.75;;;8.10;60.60;;;;;;5074370;28;20012;-75
2022/01/11 11:35:07;;;;;;;14.23;8.85;;;8.10;59.40;;;;;;5056069;28;20060;-75
2022/01/11 11:37:38;;;;;;;7.85;4.93;;;8.00;58.20;;;;;;5056274;28;20016;-74
2022/01/11 11:40:12;;;;;;;7.22;5.18;;;7.80;55.80;;;;;;5073779;28;20083;-74
2022/01/11 11:42:39;;;;;;;10.35;6.60;;;7.80;55.90;;;;;;5055770;28;20020;-73
2022/01/11 11:45:36;;;;;;;29.38;16.70;;;7.90;55.60;;;;;;5056187;28;20111;-76
2022/01/11 11:48:13;;;;;;;31.08;16.80;;;8.30;56.30;;;;;;5040400;28;20032;-75
2022/01/11 11:51:03;;;;;;;25.58;15.18;;;8.40;56.40;;;;;;5055077;28;20059;-76
2022/01/11 11:53:40;;;;;;;23.98;13.98;;;8.30;56.10;;;;;;5055072;28;20052;-76
2022/01/11 11:56:17;;;;;;;24.77;14.02;;;8.10;56.60;;;;;;5050973;28;20025;-76
2022/01/11 11:58:46;;;;;;;23.33;13.43;;;7.90;57.60;;;;;;5055699;28;20040;-76
2022/01/11 12:01:47;;;;;;;19.40;10.95;;;7.70;58.50;;;;;;5055235;28;20075;-75
2022/01/11 12:04:12;;;;;;;10.30;5.88;;;7.50;58.70;;;;;;5073425;28;20032;-75
2022/01/11 12:06:38;;;;;;;12.95;8.27;;;7.50;56.10;;;;;;5073799;28;20035;-75
2022/01/11 12:09:13;;;;;;;10.75;6.75;;;7.40;56.10;;;;;;5055419;28;20485;-76
2022/01/11 12:11:45;;;;;;;10.13;6.60;;;7.30;57.00;;;;;;5055459;28;20024;-75
2022/01/11 12:14:30;;;;;;;14.65;8.75;;;7.30;57.40;;;;;;5073406;28;20025;-75
2022/01/11 12:17:22;;;;;;;13.13;7.45;;;7.20;58.30;;;;;;5073410;28;20024;-75
2022/01/11 12:19:53;;;;;;;6.10;4.03;;;7.10;58.70;;;;;;5047013;28;20066;-75
2022/01/11 12:22:24;;;;;;;8.18;4.40;;;7.10;57.80;;;;;;5055457;28;20016;-74
2022/01/11 12:24:52;;;;;;;5.18;3.58;;;7.10;57.20;;;;;;5074510;28;20025;-78
2022/01/11 12:27:21;;;;;;;4.80;3.00;;;7.00;57.30;;;;;;5073486;28;20020;-76
2022/01/11 12:29:55;;;;;;;5.97;2.83;;;7.00;56.40;;;;;;5055072;28;20476;-76
2022/01/11 12:32:23;;;;;;;3.88;2.72;;;6.80;56.20;;;;;;5055372;28;20029;-74
2022/01/11 12:35:11;;;;;;;7.55;3.95;;;6.70;55.60;;;;;;5072976;28;20489;-75
2022/01/11 12:37:45;;;;;;;6.75;4.05;;;6.60;56.10;;;;;;5069856;28;20619;-73
2022/01/11 12:40:26;;;;;;;4.45;2.90;;;6.50;57.00;;;;;;5055271;28;20056;-73
2022/01/11 12:43:00;;;;;;;3.83;2.63;;;6.40;56.70;;;;;;5055017;28;20056;-73
2022/01/11 12:45:56;;;;;;;3.08;2.70;;;6.40;56.70;;;;;;5055024;28;20519;-73
2022/01/11 12:48:50;;;;;;;4.13;2.42;;;6.30;57.00;;;;;;5055005;28;20029;-74
2022/01/11 12:51:24;;;;;;;3.33;2.58;;;7.10;56.90;;;;;;5054914;28;20035;-74